sensor_id;sensor_type;location;lat;lon;timestamp;pressure;altitude;pressure_sealevel;temperature;humidity
8160;BME280;27404;52.398;9.646;2023-03-23T00:01:54;99730.09;;;10.89;100.00
8160;BME280;27404;52.398;9.646;2023-03-23T00:04:20;99727.31;;;10.84;100.00
8160;BME280;27404;52.398;9.646;2023-03-23T00:06:46;99726.16;;;10.74;100.00
8160;BME280;27404;52.398;9.646;2023-03-23T00:09:13;99719.50;;;10.65;100.00
8160;BME280;27404;52.398;9.646;2023-03-23T00:11:41;99725.06;;;10.48;100.00
8160;BME280;27404;52.398;9.646;2023-03-23T00:14:07;99730.25;;;10.44;100.00
8160;BME280;27404;52.398;9.646;2023-03-23T00:16:39;99723.84;;;10.38;100.00
8160;BME280;27404;52.398;9.646;2023-03-23T00:19:08;99722.41;;;10.31;100.00
8160;BME280;27404;52.398;9.646;2023-03-23T00:21:38;99714.09;;;10.20;100.00
8160;BME280;27404;52.398;9.646;2023-03-23T00:24:15;99710.06;;;10.23;100.00
8160;BME280;27404;52.398;9.646;2023-03-23T00:26:43;99710.81;;;10.18;100.00
8160;BME280;27404;52.398;9.646;2023-03-23T00:31:39;99701.41;;;10.09;100.00
8160;BME280;27404;52.398;9.646;2023-03-23T00:34:04;99703.50;;;10.02;100.00
8160;BME280;27404;52.398;9.646;2023-03-23T00:36:32;99707.91;;;10.03;100.00
8160;BME280;27404;52.398;9.646;2023-03-23T00:38:58;99700.78;;;10.02;100.00
8160;BME280;27404;52.398;9.646;2023-03-23T00:41:25;99700.78;;;10.02;100.00
8160;BME280;27404;52.398;9.646;2023-03-23T00:43:53;99694.00;;;10.04;100.00
8160;BME280;27404;52.398;9.646;2023-03-23T00:46:19;99695.66;;;10.05;100.00
8160;BME280;27404;52.398;9.646;2023-03-23T00:48:46;99694.13;;;10.15;100.00
8160;BME280;27404;52.398;9.646;2023-03-23T00:51:12;99696.22;;;10.07;100.00
8160;BME280;27404;52.398;9.646;2023-03-23T00:53:41;99692.09;;;10.05;100.00
8160;BME280;27404;52.398;9.646;2023-03-23T00:56:08;99691.00;;;10.06;100.00
8160;BME280;27404;52.398;9.646;2023-03-23T00:58:34;99692.91;;;10.05;100.00
8160;BME280;27404;52.398;9.646;2023-03-23T01:01:00;99688.53;;;10.04;100.00
8160;BME280;27404;52.398;9.646;2023-03-23T01:03:25;99683.31;;;10.03;100.00
8160;BME280;27404;52.398;9.646;2023-03-23T01:05:53;99691.50;;;10.03;100.00
8160;BME280;27404;52.398;9.646;2023-03-23T01:08:20;99690.38;;;9.99;100.00
8160;BME280;27404;52.398;9.646;2023-03-23T01:10:47;99695.59;;;10.00;100.00
8160;BME280;27404;52.398;9.646;2023-03-23T01:13:13;99666.38;;;10.01;100.00
8160;BME280;27404;52.398;9.646;2023-03-23T01:15:40;99677.56;;;9.99;100.00
8160;BME280;27404;52.398;9.646;2023-03-23T01:18:05;99672.09;;;9.99;100.00
8160;BME280;27404;52.398;9.646;2023-03-23T01:20:32;99668.81;;;9.97;100.00
8160;BME280;27404;52.398;9.646;2023-03-23T01:22:58;99665.75;;;9.93;100.00
8160;BME280;27404;52.398;9.646;2023-03-23T01:25:30;99658.31;;;9.89;100.00
8160;BME280;27404;52.398;9.646;2023-03-23T01:27:57;99665.38;;;9.85;100.00
8160;BME280;27404;52.398;9.646;2023-03-23T01:30:23;99658.09;;;9.90;100.00
8160;BME280;27404;52.398;9.646;2023-03-23T01:32:49;99653.13;;;9.87;100.00
8160;BME280;27404;52.398;9.646;2023-03-23T01:35:16;99647.63;;;9.82;100.00
8160;BME280;27404;52.398;9.646;2023-03-23T01:37:42;99647.63;;;9.82;100.00
8160;BME280;27404;52.398;9.646;2023-03-23T01:40:09;99648.50;;;9.88;100.00
8160;BME280;27404;52.398;9.646;2023-03-23T01:42:37;99638.34;;;9.83;100.00
8160;BME280;27404;52.398;9.646;2023-03-23T01:45:29;99645.63;;;9.77;100.00
8160;BME280;27404;52.398;9.646;2023-03-23T01:48:21;99640.44;;;9.76;100.00
8160;BME280;27404;52.398;9.646;2023-03-23T01:51:06;99641.59;;;9.80;100.00
8160;BME280;27404;52.398;9.646;2023-03-23T01:53:37;99637.38;;;9.72;100.00
8160;BME280;27404;52.398;9.646;2023-03-23T01:56:04;99635.78;;;9.76;100.00
8160;BME280;27404;52.398;9.646;2023-03-23T01:58:32;99633.84;;;9.72;100.00
8160;BME280;27404;52.398;9.646;2023-03-23T02:01:03;99641.47;;;9.70;100.00
8160;BME280;27404;52.398;9.646;2023-03-23T02:03:30;99640.13;;;9.72;100.00
8160;BME280;27404;52.398;9.646;2023-03-23T02:05:57;99639.81;;;9.69;100.00
8160;BME280;27404;52.398;9.646;2023-03-23T02:08:26;99632.69;;;9.68;100.00
8160;BME280;27404;52.398;9.646;2023-03-23T02:10:53;99642.09;;;9.77;100.00
8160;BME280;27404;52.398;9.646;2023-03-23T02:13:19;99643.19;;;9.76;100.00
8160;BME280;27404;52.398;9.646;2023-03-23T02:16:04;99634.41;;;9.74;100.00
8160;BME280;27404;52.398;9.646;2023-03-23T02:18:40;99633.34;;;9.75;100.00
8160;BME280;27404;52.398;9.646;2023-03-23T02:30:17;99620.84;;;9.79;100.00
8160;BME280;27404;52.398;9.646;2023-03-23T02:35:51;99611.84;;;9.84;100.00
8160;BME280;27404;52.398;9.646;2023-03-23T02:38:23;99597.59;;;9.76;100.00
8160;BME280;27404;52.398;9.646;2023-03-23T02:40:53;99594.03;;;9.76;100.00
8160;BME280;27404;52.398;9.646;2023-03-23T02:43:22;99593.22;;;9.75;100.00
8160;BME280;27404;52.398;9.646;2023-03-23T02:45:51;99597.59;;;9.76;100.00
8160;BME280;27404;52.398;9.646;2023-03-23T02:48:20;99604.13;;;9.75;100.00
8160;BME280;27404;52.398;9.646;2023-03-23T02:50:51;99597.53;;;9.71;100.00
8160;BME280;27404;52.398;9.646;2023-03-23T02:53:20;99602.97;;;9.71;100.00
8160;BME280;27404;52.398;9.646;2023-03-23T02:55:48;99593.16;;;9.70;100.00
8160;BME280;27404;52.398;9.646;2023-03-23T02:58:14;99601.66;;;9.74;100.00
8160;BME280;27404;52.398;9.646;2023-03-23T03:00:40;99587.25;;;9.78;100.00
8160;BME280;27404;52.398;9.646;2023-03-23T03:03:12;99574.09;;;9.75;100.00
8160;BME280;27404;52.398;9.646;2023-03-23T03:11:17;99558.72;;;9.91;100.00
8160;BME280;27404;52.398;9.646;2023-03-23T03:13:55;99560.91;;;9.89;100.00
8160;BME280;27404;52.398;9.646;2023-03-23T03:19:04;99583.06;;;9.71;100.00
8160;BME280;27404;52.398;9.646;2023-03-23T03:21:36;99575.69;;;9.71;100.00
8160;BME280;27404;52.398;9.646;2023-03-23T03:24:03;99574.88;;;9.71;100.00
8160;BME280;27404;52.398;9.646;2023-03-23T03:26:31;99565.63;;;9.72;100.00
8160;BME280;27404;52.398;9.646;2023-03-23T03:28:57;99554.94;;;9.70;100.00
8160;BME280;27404;52.398;9.646;2023-03-23T03:31:28;99544.31;;;9.69;100.00
8160;BME280;27404;52.398;9.646;2023-03-23T03:33:54;99555.22;;;9.69;100.00
8160;BME280;27404;52.398;9.646;2023-03-23T03:36:24;99559.69;;;9.80;100.00
8160;BME280;27404;52.398;9.646;2023-03-23T03:38:51;99550.63;;;9.74;100.00
8160;BME280;27404;52.398;9.646;2023-03-23T03:41:18;99552.88;;;9.83;100.00
8160;BME280;27404;52.398;9.646;2023-03-23T03:43:44;99557.66;;;9.92;100.00
8160;BME280;27404;52.398;9.646;2023-03-23T03:46:09;99541.09;;;10.04;100.00
8160;BME280;27404;52.398;9.646;2023-03-23T03:48:35;99542.94;;;9.99;100.00
8160;BME280;27404;52.398;9.646;2023-03-23T03:51:00;99556.91;;;10.02;100.00
8160;BME280;27404;52.398;9.646;2023-03-23T03:53:27;99547.06;;;10.01;100.00
8160;BME280;27404;52.398;9.646;2023-03-23T03:55:52;99544.03;;;9.98;100.00
8160;BME280;27404;52.398;9.646;2023-03-23T03:58:25;99548.09;;;9.95;100.00
8160;BME280;27404;52.398;9.646;2023-03-23T04:00:50;99546.72;;;9.92;100.00
8160;BME280;27404;52.398;9.646;2023-03-23T04:03:18;99535.81;;;9.92;100.00
8160;BME280;27404;52.398;9.646;2023-03-23T04:05:44;99535.03;;;9.97;100.00
8160;BME280;27404;52.398;9.646;2023-03-23T04:08:11;99532.34;;;10.02;100.00
8160;BME280;27404;52.398;9.646;2023-03-23T04:10:37;99532.84;;;9.99;100.00
8160;BME280;27404;52.398;9.646;2023-03-23T04:13:03;99530.13;;;9.99;100.00
8160;BME280;27404;52.398;9.646;2023-03-23T04:15:30;99528.00;;;10.06;100.00
8160;BME280;27404;52.398;9.646;2023-03-23T04:17:55;99525.19;;;9.96;100.00
8160;BME280;27404;52.398;9.646;2023-03-23T04:20:23;99522.69;;;9.95;100.00
8160;BME280;27404;52.398;9.646;2023-03-23T04:22:48;99521.38;;;9.97;100.00
8160;BME280;27404;52.398;9.646;2023-03-23T04:25:19;99522.69;;;9.89;100.00
8160;BME280;27404;52.398;9.646;2023-03-23T04:27:49;99510.91;;;9.89;100.00
8160;BME280;27404;52.398;9.646;2023-03-23T04:30:23;99516.38;;;9.89;100.00
8160;BME280;27404;52.398;9.646;2023-03-23T04:32:50;99519.06;;;9.84;100.00
8160;BME280;27404;52.398;9.646;2023-03-23T04:35:19;99516.09;;;9.85;100.00
8160;BME280;27404;52.398;9.646;2023-03-23T04:37:46;99526.72;;;9.87;100.00
8160;BME280;27404;52.398;9.646;2023-03-23T04:40:12;99520.66;;;9.80;100.00
8160;BME280;27404;52.398;9.646;2023-03-23T04:42:41;99516.28;;;9.78;100.00
8160;BME280;27404;52.398;9.646;2023-03-23T04:45:12;99519.00;;;9.78;100.00
8160;BME280;27404;52.398;9.646;2023-03-23T04:47:40;99514.13;;;9.81;100.00
8160;BME280;27404;52.398;9.646;2023-03-23T04:50:12;99513.66;;;9.89;100.00
8160;BME280;27404;52.398;9.646;2023-03-23T04:52:41;99510.34;;;9.87;100.00
8160;BME280;27404;52.398;9.646;2023-03-23T04:55:10;99507.94;;;9.90;100.00
8160;BME280;27404;52.398;9.646;2023-03-23T04:57:36;99502.94;;;9.82;100.00
8160;BME280;27404;52.398;9.646;2023-03-23T05:00:03;99491.75;;;9.84;100.00
8160;BME280;27404;52.398;9.646;2023-03-23T05:02:36;99506.81;;;9.86;100.00
8160;BME280;27404;52.398;9.646;2023-03-23T05:05:01;99510.09;;;9.88;100.00
8160;BME280;27404;52.398;9.646;2023-03-23T05:07:27;99505.16;;;9.85;100.00
8160;BME280;27404;52.398;9.646;2023-03-23T05:09:52;99517.16;;;9.84;100.00
8160;BME280;27404;52.398;9.646;2023-03-23T05:12:18;99522.44;;;9.96;100.00
8160;BME280;27404;52.398;9.646;2023-03-23T05:14:43;99521.88;;;9.94;100.00
8160;BME280;27404;52.398;9.646;2023-03-23T05:17:08;99533.88;;;9.93;100.00
8160;BME280;27404;52.398;9.646;2023-03-23T05:19:34;99528.38;;;9.88;100.00
8160;BME280;27404;52.398;9.646;2023-03-23T05:22:01;99539.06;;;9.89;100.00
8160;BME280;27404;52.398;9.646;2023-03-23T05:24:29;99537.03;;;9.80;100.00
8160;BME280;27404;52.398;9.646;2023-03-23T05:26:57;99528.53;;;9.76;100.00
8160;BME280;27404;52.398;9.646;2023-03-23T05:29:22;99536.56;;;9.88;100.00
8160;BME280;27404;52.398;9.646;2023-03-23T05:31:49;99532.50;;;9.90;100.00
8160;BME280;27404;52.398;9.646;2023-03-23T05:34:14;99529.81;;;9.96;100.00
8160;BME280;27404;52.398;9.646;2023-03-23T05:36:41;99538.00;;;9.96;100.00
8160;BME280;27404;52.398;9.646;2023-03-23T05:39:09;99540.47;;;9.97;100.00
8160;BME280;27404;52.398;9.646;2023-03-23T05:41:35;99533.41;;;10.01;100.00
8160;BME280;27404;52.398;9.646;2023-03-23T05:44:01;99525.78;;;10.03;100.00
8160;BME280;27404;52.398;9.646;2023-03-23T05:46:27;99535.94;;;10.08;100.00
8160;BME280;27404;52.398;9.646;2023-03-23T05:48:53;99534.56;;;10.05;100.00
8160;BME280;27404;52.398;9.646;2023-03-23T05:51:19;99531.50;;;10.02;100.00
8160;BME280;27404;52.398;9.646;2023-03-23T05:53:45;99530.97;;;10.05;100.00
8160;BME280;27404;52.398;9.646;2023-03-23T05:56:11;99531.81;;;10.05;100.00
8160;BME280;27404;52.398;9.646;2023-03-23T05:58:37;99530.16;;;10.04;100.00
8160;BME280;27404;52.398;9.646;2023-03-23T06:01:06;99535.34;;;10.06;100.00
8160;BME280;27404;52.398;9.646;2023-03-23T06:03:32;99538.41;;;10.10;100.00
8160;BME280;27404;52.398;9.646;2023-03-23T06:05:57;99532.94;;;10.10;100.00
8160;BME280;27404;52.398;9.646;2023-03-23T06:08:23;99527.44;;;10.04;100.00
8160;BME280;27404;52.398;9.646;2023-03-23T06:10:49;99532.34;;;10.02;100.00
8160;BME280;27404;52.398;9.646;2023-03-23T06:13:16;99527.97;;;10.01;100.00
8160;BME280;27404;52.398;9.646;2023-03-23T06:15:41;99517.91;;;10.07;100.00
8160;BME280;27404;52.398;9.646;2023-03-23T06:18:06;99519.16;;;10.27;100.00
8160;BME280;27404;52.398;9.646;2023-03-23T06:20:32;99517.22;;;10.27;100.00
8160;BME280;27404;52.398;9.646;2023-03-23T06:22:58;99495.69;;;10.31;100.00
8160;BME280;27404;52.398;9.646;2023-03-23T06:25:24;99512.91;;;10.31;100.00
8160;BME280;27404;52.398;9.646;2023-03-23T06:27:49;99512.66;;;10.33;100.00
8160;BME280;27404;52.398;9.646;2023-03-23T06:30:17;99497.88;;;10.29;100.00
8160;BME280;27404;52.398;9.646;2023-03-23T06:32:43;99523.25;;;10.29;100.00
8160;BME280;27404;52.398;9.646;2023-03-23T06:35:12;99513.69;;;10.27;100.00
8160;BME280;27404;52.398;9.646;2023-03-23T06:37:37;99522.78;;;10.37;100.00
8160;BME280;27404;52.398;9.646;2023-03-23T06:40:04;99532.16;;;10.47;100.00
8160;BME280;27404;52.398;9.646;2023-03-23T06:42:33;99538.00;;;10.61;100.00
8160;BME280;27404;52.398;9.646;2023-03-23T06:44:59;99538.31;;;10.64;100.00
8160;BME280;27404;52.398;9.646;2023-03-23T06:47:26;99545.94;;;10.62;100.00
8160;BME280;27404;52.398;9.646;2023-03-23T06:49:54;99542.72;;;10.71;100.00
8160;BME280;27404;52.398;9.646;2023-03-23T06:52:20;99541.38;;;10.78;100.00
8160;BME280;27404;52.398;9.646;2023-03-23T06:54:45;99541.91;;;10.75;100.00
8160;BME280;27404;52.398;9.646;2023-03-23T06:57:11;99547.16;;;10.82;100.00
8160;BME280;27404;52.398;9.646;2023-03-23T06:59:36;99540.84;;;10.81;100.00
8160;BME280;27404;52.398;9.646;2023-03-23T07:02:02;99541.72;;;10.87;100.00
8160;BME280;27404;52.398;9.646;2023-03-23T07:04:27;99545.34;;;10.98;100.00
8160;BME280;27404;52.398;9.646;2023-03-23T07:06:53;99542.31;;;11.00;100.00
8160;BME280;27404;52.398;9.646;2023-03-23T07:09:18;99545.63;;;11.02;100.00
8160;BME280;27404;52.398;9.646;2023-03-23T07:11:44;99545.41;;;11.08;100.00
8160;BME280;27404;52.398;9.646;2023-03-23T07:14:10;99552.59;;;11.25;100.00
8160;BME280;27404;52.398;9.646;2023-03-23T07:16:36;99549.84;;;11.30;100.00
8160;BME280;27404;52.398;9.646;2023-03-23T07:19:01;99551.53;;;11.41;100.00
8160;BME280;27404;52.398;9.646;2023-03-23T07:21:27;99550.19;;;11.44;100.00
8160;BME280;27404;52.398;9.646;2023-03-23T07:23:52;99540.09;;;11.55;100.00
8160;BME280;27404;52.398;9.646;2023-03-23T07:26:18;99552.69;;;11.61;100.00
8160;BME280;27404;52.398;9.646;2023-03-23T07:28:43;99545.09;;;11.79;100.00
8160;BME280;27404;52.398;9.646;2023-03-23T07:31:11;99540.72;;;11.88;100.00
8160;BME280;27404;52.398;9.646;2023-03-23T07:33:36;99546.19;;;11.83;100.00
8160;BME280;27404;52.398;9.646;2023-03-23T07:36:02;99554.94;;;11.80;100.00
8160;BME280;27404;52.398;9.646;2023-03-23T07:38:29;99561.50;;;11.79;100.00
8160;BME280;27404;52.398;9.646;2023-03-23T07:40:55;99556.31;;;11.88;100.00
8160;BME280;27404;52.398;9.646;2023-03-23T07:43:21;99555.56;;;12.13;100.00
8160;BME280;27404;52.398;9.646;2023-03-23T07:45:48;99543.25;;;12.16;100.00
8160;BME280;27404;52.398;9.646;2023-03-23T07:48:13;99548.44;;;12.22;100.00
8160;BME280;27404;52.398;9.646;2023-03-23T07:50:39;99536.38;;;12.18;100.00
8160;BME280;27404;52.398;9.646;2023-03-23T07:53:05;99547.06;;;12.14;100.00
8160;BME280;27404;52.398;9.646;2023-03-23T07:55:31;99541.03;;;12.28;100.00
8160;BME280;27404;52.398;9.646;2023-03-23T07:57:57;99547.59;;;12.42;100.00
8160;BME280;27404;52.398;9.646;2023-03-23T08:00:23;99549.00;;;12.40;100.00
8160;BME280;27404;52.398;9.646;2023-03-23T08:02:56;99548.44;;;12.53;100.00
8160;BME280;27404;52.398;9.646;2023-03-23T08:05:23;99551.97;;;12.64;100.00
8160;BME280;27404;52.398;9.646;2023-03-23T08:07:51;99554.16;;;12.83;100.00
8160;BME280;27404;52.398;9.646;2023-03-23T08:10:17;99557.38;;;12.95;100.00
8160;BME280;27404;52.398;9.646;2023-03-23T08:12:44;99556.25;;;13.12;100.00
8160;BME280;27404;52.398;9.646;2023-03-23T08:15:11;99559.59;;;12.93;100.00
8160;BME280;27404;52.398;9.646;2023-03-23T08:17:41;99554.94;;;12.94;100.00
8160;BME280;27404;52.398;9.646;2023-03-23T08:20:08;99557.91;;;13.02;100.00
8160;BME280;27404;52.398;9.646;2023-03-23T08:22:36;99566.72;;;12.94;100.00
8160;BME280;27404;52.398;9.646;2023-03-23T08:25:04;99567.25;;;13.07;100.00
8160;BME280;27404;52.398;9.646;2023-03-23T08:27:31;99577.97;;;12.93;100.00
8160;BME280;27404;52.398;9.646;2023-03-23T08:29:57;99567.31;;;12.86;100.00
8160;BME280;27404;52.398;9.646;2023-03-23T08:32:22;99570.06;;;12.91;100.00
8160;BME280;27404;52.398;9.646;2023-03-23T08:34:49;99573.34;;;12.83;100.00
8160;BME280;27404;52.398;9.646;2023-03-23T08:37:15;99577.75;;;12.84;100.00
8160;BME280;27404;52.398;9.646;2023-03-23T08:39:42;99592.00;;;12.91;100.00
8160;BME280;27404;52.398;9.646;2023-03-23T08:42:08;99579.38;;;12.90;100.00
8160;BME280;27404;52.398;9.646;2023-03-23T08:44:35;99584.81;;;12.95;100.00
8160;BME280;27404;52.398;9.646;2023-03-23T08:47:01;99583.47;;;12.93;100.00
8160;BME280;27404;52.398;9.646;2023-03-23T08:49:29;99600.72;;;12.93;100.00
8160;BME280;27404;52.398;9.646;2023-03-23T08:51:56;99592.75;;;13.12;100.00
8160;BME280;27404;52.398;9.646;2023-03-23T08:54:21;99594.94;;;13.21;100.00
8160;BME280;27404;52.398;9.646;2023-03-23T08:56:47;99604.28;;;13.20;100.00
8160;BME280;27404;52.398;9.646;2023-03-23T08:59:12;99608.66;;;13.21;100.00
8160;BME280;27404;52.398;9.646;2023-03-23T09:01:38;99610.03;;;13.08;100.00
8160;BME280;27404;52.398;9.646;2023-03-23T09:04:03;99612.81;;;12.92;100.00
8160;BME280;27404;52.398;9.646;2023-03-23T09:06:29;99604.88;;;12.85;100.00
8160;BME280;27404;52.398;9.646;2023-03-23T09:08:55;99601.59;;;12.88;100.00
8160;BME280;27404;52.398;9.646;2023-03-23T09:11:21;99592.25;;;12.79;100.00
8160;BME280;27404;52.398;9.646;2023-03-23T09:13:47;99593.34;;;12.94;100.00
8160;BME280;27404;52.398;9.646;2023-03-23T09:16:13;99596.09;;;12.88;100.00
8160;BME280;27404;52.398;9.646;2023-03-23T09:18:38;99595.50;;;13.07;100.00
8160;BME280;27404;52.398;9.646;2023-03-23T09:21:04;99601.00;;;13.07;100.00
8160;BME280;27404;52.398;9.646;2023-03-23T09:23:30;99603.44;;;13.19;100.00
8160;BME280;27404;52.398;9.646;2023-03-23T09:25:56;99612.16;;;13.37;100.00
8160;BME280;27404;52.398;9.646;2023-03-23T09:28:22;99602.91;;;13.12;100.00
8160;BME280;27404;52.398;9.646;2023-03-23T09:30:47;99603.44;;;13.19;100.00
8160;BME280;27404;52.398;9.646;2023-03-23T09:33:14;99600.16;;;13.12;100.00
8160;BME280;27404;52.398;9.646;2023-03-23T09:35:40;99606.19;;;13.14;100.00
8160;BME280;27404;52.398;9.646;2023-03-23T09:38:08;99619.94;;;12.98;100.00
8160;BME280;27404;52.398;9.646;2023-03-23T09:43:49;99622.94;;;13.07;100.00
8160;BME280;27404;52.398;9.646;2023-03-23T09:46:47;99628.13;;;13.19;100.00
8160;BME280;27404;52.398;9.646;2023-03-23T09:52:43;99629.25;;;12.97;100.00
8160;BME280;27404;52.398;9.646;2023-03-23T09:55:15;99630.09;;;12.87;100.00
8160;BME280;27404;52.398;9.646;2023-03-23T09:58:12;99631.50;;;12.69;100.00
8160;BME280;27404;52.398;9.646;2023-03-23T10:03:37;99636.44;;;12.62;100.00
8160;BME280;27404;52.398;9.646;2023-03-23T10:06:04;99639.72;;;12.59;100.00
8160;BME280;27404;52.398;9.646;2023-03-23T10:08:31;99633.94;;;12.61;100.00
8160;BME280;27404;52.398;9.646;2023-03-23T10:16:24;99646.00;;;12.80;100.00
8160;BME280;27404;52.398;9.646;2023-03-23T10:19:15;99652.34;;;12.91;100.00
8160;BME280;27404;52.398;9.646;2023-03-23T10:21:57;99669.06;;;13.00;100.00
8160;BME280;27404;52.398;9.646;2023-03-23T10:24:35;99665.47;;;13.15;100.00
8160;BME280;27404;52.398;9.646;2023-03-23T10:27:31;99657.75;;;13.22;100.00
8160;BME280;27404;52.398;9.646;2023-03-23T10:30:49;99667.06;;;13.31;100.00
8160;BME280;27404;52.398;9.646;2023-03-23T10:32:56;99655.25;;;13.31;100.00
8160;BME280;27404;52.398;9.646;2023-03-23T10:35:30;99666.22;;;13.36;100.00
8160;BME280;27404;52.398;9.646;2023-03-23T10:38:01;99664.78;;;13.70;100.00
8160;BME280;27404;52.398;9.646;2023-03-23T10:40:29;99663.91;;;13.90;100.00
8160;BME280;27404;52.398;9.646;2023-03-23T10:42:56;99664.47;;;13.87;100.00
8160;BME280;27404;52.398;9.646;2023-03-23T10:45:26;99674.44;;;13.62;100.00
8160;BME280;27404;52.398;9.646;2023-03-23T10:47:56;99678.28;;;13.66;100.00
8160;BME280;27404;52.398;9.646;2023-03-23T10:50:30;99669.69;;;13.78;100.00
8160;BME280;27404;52.398;9.646;2023-03-23T10:52:58;99676.28;;;13.82;100.00
8160;BME280;27404;52.398;9.646;2023-03-23T10:55:36;99674.53;;;14.07;100.00
8160;BME280;27404;52.398;9.646;2023-03-23T10:58:05;99668.44;;;14.15;100.00
8160;BME280;27404;52.398;9.646;2023-03-23T11:00:31;99669.69;;;14.33;100.00
8160;BME280;27404;52.398;9.646;2023-03-23T11:03:32;99670.75;;;14.43;100.00
8160;BME280;27404;52.398;9.646;2023-03-23T11:05:56;99671.84;;;14.42;100.00
8160;BME280;27404;52.398;9.646;2023-03-23T11:08:25;99666.75;;;14.19;100.00
8160;BME280;27404;52.398;9.646;2023-03-23T11:10:54;99662.56;;;14.32;100.00
8160;BME280;27404;52.398;9.646;2023-03-23T11:13:23;99666.91;;;14.39;100.00
8160;BME280;27404;52.398;9.646;2023-03-23T11:15:50;99662.16;;;14.49;100.00
8160;BME280;27404;52.398;9.646;2023-03-23T11:20:49;99663.13;;;14.29;100.00
8160;BME280;27404;52.398;9.646;2023-03-23T11:28:27;99671.22;;;14.55;100.00
8160;BME280;27404;52.398;9.646;2023-03-23T11:30:55;99660.50;;;14.48;100.00
8160;BME280;27404;52.398;9.646;2023-03-23T11:33:21;99659.16;;;14.46;100.00
8160;BME280;27404;52.398;9.646;2023-03-23T11:35:52;99665.84;;;14.74;100.00
8160;BME280;27404;52.398;9.646;2023-03-23T11:38:20;99667.72;;;14.79;100.00
8160;BME280;27404;52.398;9.646;2023-03-23T11:40:51;99667.72;;;14.79;100.00
8160;BME280;27404;52.398;9.646;2023-03-23T11:43:23;99672.34;;;14.89;100.00
8160;BME280;27404;52.398;9.646;2023-03-23T11:50:53;99664.28;;;14.18;100.00
8160;BME280;27404;52.398;9.646;2023-03-23T11:56:14;99680.31;;;14.00;100.00
8160;BME280;27404;52.398;9.646;2023-03-23T11:58:41;99685.66;;;13.71;100.00
8160;BME280;27404;52.398;9.646;2023-03-23T12:12:41;99741.50;;;11.13;100.00
8160;BME280;27404;52.398;9.646;2023-03-23T12:18:24;99731.47;;;10.86;100.00
8160;BME280;27404;52.398;9.646;2023-03-23T12:26:47;99747.09;;;10.91;100.00
8160;BME280;27404;52.398;9.646;2023-03-23T12:40:17;99753.53;;;10.52;100.00
8160;BME280;27404;52.398;9.646;2023-03-23T12:48:43;99764.97;;;10.49;100.00
8160;BME280;27404;52.398;9.646;2023-03-23T12:54:24;99766.22;;;10.91;100.00
8160;BME280;27404;52.398;9.646;2023-03-23T12:57:11;99761.75;;;11.12;100.00
8160;BME280;27404;52.398;9.646;2023-03-23T12:59:45;99753.41;;;11.29;100.00
8160;BME280;27404;52.398;9.646;2023-03-23T13:02:16;99747.25;;;11.49;100.00
8160;BME280;27404;52.398;9.646;2023-03-23T13:04:48;99753.56;;;11.55;100.00
8160;BME280;27404;52.398;9.646;2023-03-23T13:07:19;99750.81;;;11.50;100.00
8160;BME280;27404;52.398;9.646;2023-03-23T13:09:55;99750.59;;;11.57;100.00
8160;BME280;27404;52.398;9.646;2023-03-23T13:12:24;99751.84;;;11.44;100.00
8160;BME280;27404;52.398;9.646;2023-03-23T13:14:55;99745.00;;;11.41;100.00
8160;BME280;27404;52.398;9.646;2023-03-23T13:17:52;99742.28;;;11.41;100.00
8160;BME280;27404;52.398;9.646;2023-03-23T13:23:40;99755.47;;;11.11;100.00
8160;BME280;27404;52.398;9.646;2023-03-23T13:26:09;99759.06;;;11.17;100.00
8160;BME280;27404;52.398;9.646;2023-03-23T13:28:57;99760.22;;;10.94;100.00
8160;BME280;27404;52.398;9.646;2023-03-23T13:31:33;99764.75;;;10.78;100.00
8160;BME280;27404;52.398;9.646;2023-03-23T13:34:24;99765.44;;;10.68;100.00
8160;BME280;27404;52.398;9.646;2023-03-23T13:36:53;99756.94;;;10.64;100.00
8160;BME280;27404;52.398;9.646;2023-03-23T13:39:23;99765.56;;;10.78;100.00
8160;BME280;27404;52.398;9.646;2023-03-23T13:42:18;99776.19;;;10.75;100.00
8160;BME280;27404;52.398;9.646;2023-03-23T13:49:53;99781.09;;;10.45;100.00
8160;BME280;27404;52.398;9.646;2023-03-23T13:57:55;99759.97;;;10.95;100.00
8160;BME280;27404;52.398;9.646;2023-03-23T14:03:10;99758.31;;;11.27;100.00
8160;BME280;27404;52.398;9.646;2023-03-23T14:05:48;99757.00;;;11.35;100.00
8160;BME280;27404;52.398;9.646;2023-03-23T14:11:11;99762.28;;;11.47;100.00
8160;BME280;27404;52.398;9.646;2023-03-23T14:16:41;99729.13;;;11.86;100.00
8160;BME280;27404;52.398;9.646;2023-03-23T14:21:54;99735.38;;;11.81;100.00
8160;BME280;27404;52.398;9.646;2023-03-23T14:24:28;99741.16;;;11.85;100.00
8160;BME280;27404;52.398;9.646;2023-03-23T14:27:11;99736.91;;;12.10;100.00
8160;BME280;27404;52.398;9.646;2023-03-23T14:29:37;99732.03;;;12.22;100.00
8160;BME280;27404;52.398;9.646;2023-03-23T14:32:06;99738.94;;;12.51;100.00
8160;BME280;27404;52.398;9.646;2023-03-23T14:34:32;99747.69;;;12.42;100.00
8160;BME280;27404;52.398;9.646;2023-03-23T14:36:59;99745.47;;;12.34;100.00
8160;BME280;27404;52.398;9.646;2023-03-23T14:39:29;99746.00;;;12.31;100.00
8160;BME280;27404;52.398;9.646;2023-03-23T14:42:23;99749.91;;;12.51;100.00
8160;BME280;27404;52.398;9.646;2023-03-23T14:44:50;99746.94;;;12.57;100.00
8160;BME280;27404;52.398;9.646;2023-03-23T14:47:29;99749.34;;;12.49;100.00
8160;BME280;27404;52.398;9.646;2023-03-23T14:49:58;99761.41;;;12.42;100.00
8160;BME280;27404;52.398;9.646;2023-03-23T14:52:29;99755.41;;;12.51;100.00
8160;BME280;27404;52.398;9.646;2023-03-23T14:54:55;99767.41;;;12.39;100.00
8160;BME280;27404;52.398;9.646;2023-03-23T14:57:32;99756.25;;;12.56;100.00
8160;BME280;27404;52.398;9.646;2023-03-23T14:59:58;99771.56;;;12.47;100.00
8160;BME280;27404;52.398;9.646;2023-03-23T15:02:31;99759.22;;;12.44;100.00
8160;BME280;27404;52.398;9.646;2023-03-23T15:07:39;99764.69;;;12.44;100.00
8160;BME280;27404;52.398;9.646;2023-03-23T15:10:08;99752.91;;;12.39;100.00
8160;BME280;27404;52.398;9.646;2023-03-23T15:12:38;99759.16;;;12.19;100.00
8160;BME280;27404;52.398;9.646;2023-03-23T15:15:06;99758.28;;;12.13;100.00